sensor_id;sensor_type;location;lat;lon;timestamp;P1;durP1;ratioP1;P2;durP2;ratioP2
9852;SDS011;4965;43.238;27.864;2022-10-30T00:01:27;10.20;;;8.38;;
9852;SDS011;4965;43.238;27.864;2022-10-30T00:03:54;8.50;;;7.60;;
9852;SDS011;4965;43.238;27.864;2022-10-30T00:06:21;11.40;;;8.57;;
9852;SDS011;4965;43.238;27.864;2022-10-30T00:08:47;13.07;;;7.65;;
9852;SDS011;4965;43.238;27.864;2022-10-30T00:11:14;13.60;;;8.05;;
9852;SDS011;4965;43.238;27.864;2022-10-30T00:13:41;8.57;;;7.50;;
9852;SDS011;4965;43.238;27.864;2022-10-30T00:16:10;8.95;;;7.63;;
9852;SDS011;4965;43.238;27.864;2022-10-30T00:18:37;10.55;;;7.97;;
9852;SDS011;4965;43.238;27.864;2022-10-30T00:21:07;9.25;;;8.27;;
9852;SDS011;4965;43.238;27.864;2022-10-30T00:23:35;13.73;;;8.70;;
9852;SDS011;4965;43.238;27.864;2022-10-30T00:26:03;12.77;;;8.23;;
9852;SDS011;4965;43.238;27.864;2022-10-30T00:28:31;10.95;;;7.75;;
9852;SDS011;4965;43.238;27.864;2022-10-30T00:30:58;11.52;;;8.18;;
9852;SDS011;4965;43.238;27.864;2022-10-30T00:33:27;11.32;;;7.82;;
9852;SDS011;4965;43.238;27.864;2022-10-30T00:35:53;12.68;;;8.65;;
9852;SDS011;4965;43.238;27.864;2022-10-30T00:38:20;10.23;;;8.75;;
9852;SDS011;4965;43.238;27.864;2022-10-30T00:40:48;14.18;;;7.65;;
9852;SDS011;4965;43.238;27.864;2022-10-30T00:43:26;13.40;;;9.75;;
9852;SDS011;4965;43.238;27.864;2022-10-30T00:45:54;13.10;;;9.38;;
9852;SDS011;4965;43.238;27.864;2022-10-30T00:48:23;8.95;;;7.95;;
9852;SDS011;4965;43.238;27.864;2022-10-30T00:50:52;10.82;;;8.15;;
9852;SDS011;4965;43.238;27.864;2022-10-30T00:53:22;10.18;;;8.63;;
9852;SDS011;4965;43.238;27.864;2022-10-30T00:55:51;13.93;;;9.80;;
9852;SDS011;4965;43.238;27.864;2022-10-30T00:58:22;12.25;;;8.98;;
9852;SDS011;4965;43.238;27.864;2022-10-30T01:00:55;14.93;;;9.43;;
9852;SDS011;4965;43.238;27.864;2022-10-30T01:03:26;13.15;;;10.23;;
9852;SDS011;4965;43.238;27.864;2022-10-30T01:05:58;16.55;;;10.75;;
9852;SDS011;4965;43.238;27.864;2022-10-30T01:08:28;15.10;;;10.93;;
9852;SDS011;4965;43.238;27.864;2022-10-30T01:10:56;18.85;;;10.95;;
9852;SDS011;4965;43.238;27.864;2022-10-30T01:13:26;14.02;;;10.88;;
9852;SDS011;4965;43.238;27.864;2022-10-30T01:15:59;21.08;;;12.25;;
9852;SDS011;4965;43.238;27.864;2022-10-30T01:18:46;23.48;;;14.13;;
9852;SDS011;4965;43.238;27.864;2022-10-30T01:21:25;25.27;;;14.43;;
9852;SDS011;4965;43.238;27.864;2022-10-30T01:24:11;25.80;;;15.50;;
9852;SDS011;4965;43.238;27.864;2022-10-30T01:26:49;24.73;;;13.98;;
9852;SDS011;4965;43.238;27.864;2022-10-30T01:29:27;25.17;;;14.40;;
9852;SDS011;4965;43.238;27.864;2022-10-30T01:32:08;26.60;;;14.98;;
9852;SDS011;4965;43.238;27.864;2022-10-30T01:34:49;27.20;;;14.63;;
9852;SDS011;4965;43.238;27.864;2022-10-30T01:37:27;24.58;;;14.18;;
9852;SDS011;4965;43.238;27.864;2022-10-30T01:40:04;20.73;;;13.23;;
9852;SDS011;4965;43.238;27.864;2022-10-30T01:42:43;24.63;;;13.48;;
9852;SDS011;4965;43.238;27.864;2022-10-30T01:45:14;22.52;;;12.85;;
9852;SDS011;4965;43.238;27.864;2022-10-30T01:47:52;23.95;;;14.57;;
9852;SDS011;4965;43.238;27.864;2022-10-30T01:50:28;20.55;;;13.73;;
9852;SDS011;4965;43.238;27.864;2022-10-30T01:53:05;24.67;;;13.95;;
9852;SDS011;4965;43.238;27.864;2022-10-30T01:55:44;25.58;;;13.68;;
9852;SDS011;4965;43.238;27.864;2022-10-30T01:58:19;19.58;;;14.10;;
9852;SDS011;4965;43.238;27.864;2022-10-30T02:00:49;22.30;;;14.13;;
9852;SDS011;4965;43.238;27.864;2022-10-30T02:03:19;23.92;;;14.27;;
9852;SDS011;4965;43.238;27.864;2022-10-30T02:05:47;21.95;;;13.90;;
9852;SDS011;4965;43.238;27.864;2022-10-30T02:08:17;24.55;;;13.98;;
9852;SDS011;4965;43.238;27.864;2022-10-30T02:10:44;33.70;;;17.80;;
9852;SDS011;4965;43.238;27.864;2022-10-30T02:13:14;31.02;;;17.08;;
9852;SDS011;4965;43.238;27.864;2022-10-30T02:15:41;32.63;;;17.20;;
9852;SDS011;4965;43.238;27.864;2022-10-30T02:18:11;30.83;;;18.27;;
9852;SDS011;4965;43.238;27.864;2022-10-30T02:20:39;33.63;;;17.65;;
9852;SDS011;4965;43.238;27.864;2022-10-30T02:23:07;38.88;;;21.27;;
9852;SDS011;4965;43.238;27.864;2022-10-30T02:25:37;32.75;;;21.17;;
9852;SDS011;4965;43.238;27.864;2022-10-30T02:28:04;42.20;;;23.23;;
9852;SDS011;4965;43.238;27.864;2022-10-30T02:30:32;51.42;;;25.48;;
9852;SDS011;4965;43.238;27.864;2022-10-30T02:32:59;43.80;;;25.92;;
9852;SDS011;4965;43.238;27.864;2022-10-30T02:35:27;38.08;;;22.92;;
9852;SDS011;4965;43.238;27.864;2022-10-30T02:37:58;38.35;;;23.88;;
9852;SDS011;4965;43.238;27.864;2022-10-30T02:40:24;36.92;;;22.63;;
9852;SDS011;4965;43.238;27.864;2022-10-30T02:42:52;29.60;;;20.10;;
9852;SDS011;4965;43.238;27.864;2022-10-30T02:45:19;27.55;;;18.83;;
9852;SDS011;4965;43.238;27.864;2022-10-30T02:47:46;28.52;;;18.00;;
9852;SDS011;4965;43.238;27.864;2022-10-30T02:50:14;23.65;;;16.13;;
9852;SDS011;4965;43.238;27.864;2022-10-30T02:52:42;32.85;;;17.83;;
9852;SDS011;4965;43.238;27.864;2022-10-30T02:55:11;28.25;;;17.02;;
9852;SDS011;4965;43.238;27.864;2022-10-30T02:57:38;26.52;;;17.25;;
9852;SDS011;4965;43.238;27.864;2022-10-30T03:00:06;24.25;;;18.10;;
9852;SDS011;4965;43.238;27.864;2022-10-30T03:02:34;26.45;;;19.70;;
9852;SDS011;4965;43.238;27.864;2022-10-30T03:05:01;29.60;;;20.90;;
9852;SDS011;4965;43.238;27.864;2022-10-30T03:07:28;31.85;;;20.48;;
9852;SDS011;4965;43.238;27.864;2022-10-30T03:09:56;35.08;;;23.50;;
9852;SDS011;4965;43.238;27.864;2022-10-30T03:12:24;32.72;;;22.20;;
9852;SDS011;4965;43.238;27.864;2022-10-30T03:14:51;29.92;;;21.83;;
9852;SDS011;4965;43.238;27.864;2022-10-30T03:17:19;27.80;;;21.83;;
9852;SDS011;4965;43.238;27.864;2022-10-30T03:19:46;29.45;;;22.95;;
9852;SDS011;4965;43.238;27.864;2022-10-30T03:22:13;31.42;;;23.05;;
9852;SDS011;4965;43.238;27.864;2022-10-30T03:24:40;81.22;;;23.90;;
9852;SDS011;4965;43.238;27.864;2022-10-30T03:27:08;49.10;;;20.33;;
9852;SDS011;4965;43.238;27.864;2022-10-30T03:29:36;51.33;;;22.90;;
9852;SDS011;4965;43.238;27.864;2022-10-30T03:32:07;33.08;;;22.42;;
9852;SDS011;4965;43.238;27.864;2022-10-30T03:34:34;50.72;;;21.83;;
9852;SDS011;4965;43.238;27.864;2022-10-30T03:37:02;34.63;;;22.90;;
9852;SDS011;4965;43.238;27.864;2022-10-30T03:39:29;25.42;;;22.00;;
9852;SDS011;4965;43.238;27.864;2022-10-30T03:41:56;27.27;;;21.08;;
9852;SDS011;4965;43.238;27.864;2022-10-30T03:44:24;26.17;;;20.58;;
9852;SDS011;4965;43.238;27.864;2022-10-30T03:46:52;25.25;;;20.52;;
9852;SDS011;4965;43.238;27.864;2022-10-30T03:49:20;27.33;;;20.35;;
9852;SDS011;4965;43.238;27.864;2022-10-30T03:51:48;27.73;;;20.45;;
9852;SDS011;4965;43.238;27.864;2022-10-30T03:54:16;29.27;;;20.05;;
9852;SDS011;4965;43.238;27.864;2022-10-30T03:56:44;24.17;;;19.25;;
9852;SDS011;4965;43.238;27.864;2022-10-30T03:59:12;25.08;;;19.75;;
9852;SDS011;4965;43.238;27.864;2022-10-30T04:01:39;24.25;;;19.33;;
9852;SDS011;4965;43.238;27.864;2022-10-30T04:04:08;24.02;;;19.25;;
9852;SDS011;4965;43.238;27.864;2022-10-30T04:06:36;22.92;;;18.27;;
9852;SDS011;4965;43.238;27.864;2022-10-30T04:09:03;22.25;;;18.30;;
9852;SDS011;4965;43.238;27.864;2022-10-30T04:11:31;26.40;;;18.10;;
9852;SDS011;4965;43.238;27.864;2022-10-30T04:13:58;20.83;;;18.63;;
9852;SDS011;4965;43.238;27.864;2022-10-30T04:16:25;22.20;;;18.33;;
9852;SDS011;4965;43.238;27.864;2022-10-30T04:18:52;27.83;;;18.98;;
9852;SDS011;4965;43.238;27.864;2022-10-30T04:21:20;28.40;;;20.17;;
9852;SDS011;4965;43.238;27.864;2022-10-30T04:23:52;38.00;;;22.27;;
9852;SDS011;4965;43.238;27.864;2022-10-30T04:26:19;32.50;;;22.88;;
9852;SDS011;4965;43.238;27.864;2022-10-30T04:28:46;45.65;;;23.30;;
9852;SDS011;4965;43.238;27.864;2022-10-30T04:31:13;48.33;;;24.30;;
9852;SDS011;4965;43.238;27.864;2022-10-30T04:33:40;46.65;;;25.65;;
9852;SDS011;4965;43.238;27.864;2022-10-30T04:36:07;46.63;;;25.45;;
9852;SDS011;4965;43.238;27.864;2022-10-30T04:38:36;65.30;;;25.02;;
9852;SDS011;4965;43.238;27.864;2022-10-30T04:41:03;35.42;;;23.60;;
9852;SDS011;4965;43.238;27.864;2022-10-30T04:43:31;36.33;;;23.50;;
9852;SDS011;4965;43.238;27.864;2022-10-30T04:45:58;37.83;;;22.42;;
9852;SDS011;4965;43.238;27.864;2022-10-30T04:48:29;32.30;;;23.67;;
9852;SDS011;4965;43.238;27.864;2022-10-30T04:50:59;34.17;;;24.42;;
9852;SDS011;4965;43.238;27.864;2022-10-30T04:53:27;31.35;;;23.08;;
9852;SDS011;4965;43.238;27.864;2022-10-30T04:55:56;34.85;;;23.13;;
9852;SDS011;4965;43.238;27.864;2022-10-30T04:58:23;32.10;;;22.98;;
9852;SDS011;4965;43.238;27.864;2022-10-30T05:00:50;33.00;;;22.85;;
9852;SDS011;4965;43.238;27.864;2022-10-30T05:03:18;28.17;;;20.67;;
9852;SDS011;4965;43.238;27.864;2022-10-30T05:05:54;28.80;;;20.98;;
9852;SDS011;4965;43.238;27.864;2022-10-30T05:08:24;30.05;;;19.35;;
9852;SDS011;4965;43.238;27.864;2022-10-30T05:10:51;31.00;;;20.90;;
9852;SDS011;4965;43.238;27.864;2022-10-30T05:13:20;33.47;;;23.85;;
9852;SDS011;4965;43.238;27.864;2022-10-30T05:15:48;26.23;;;18.73;;
9852;SDS011;4965;43.238;27.864;2022-10-30T05:18:15;25.45;;;18.13;;
9852;SDS011;4965;43.238;27.864;2022-10-30T05:20:45;27.23;;;18.80;;
9852;SDS011;4965;43.238;27.864;2022-10-30T05:23:13;29.48;;;17.27;;
9852;SDS011;4965;43.238;27.864;2022-10-30T05:25:40;27.25;;;18.17;;
9852;SDS011;4965;43.238;27.864;2022-10-30T05:28:08;23.45;;;15.93;;
9852;SDS011;4965;43.238;27.864;2022-10-30T05:30:37;19.70;;;16.52;;
9852;SDS011;4965;43.238;27.864;2022-10-30T05:33:04;21.35;;;17.15;;
9852;SDS011;4965;43.238;27.864;2022-10-30T05:35:33;21.58;;;16.17;;
9852;SDS011;4965;43.238;27.864;2022-10-30T05:38:01;25.05;;;15.10;;
9852;SDS011;4965;43.238;27.864;2022-10-30T05:40:30;28.83;;;16.05;;
9852;SDS011;4965;43.238;27.864;2022-10-30T05:42:58;24.85;;;17.90;;
9852;SDS011;4965;43.238;27.864;2022-10-30T05:45:25;25.33;;;17.40;;
9852;SDS011;4965;43.238;27.864;2022-10-30T05:47:54;22.70;;;16.27;;
9852;SDS011;4965;43.238;27.864;2022-10-30T05:50:22;26.33;;;17.90;;
9852;SDS011;4965;43.238;27.864;2022-10-30T05:52:53;23.33;;;14.73;;
9852;SDS011;4965;43.238;27.864;2022-10-30T05:55:21;23.17;;;15.68;;
9852;SDS011;4965;43.238;27.864;2022-10-30T05:57:48;23.52;;;15.23;;
9852;SDS011;4965;43.238;27.864;2022-10-30T06:00:16;25.17;;;16.00;;
9852;SDS011;4965;43.238;27.864;2022-10-30T06:02:43;25.10;;;17.65;;
9852;SDS011;4965;43.238;27.864;2022-10-30T06:05:12;22.80;;;16.98;;
9852;SDS011;4965;43.238;27.864;2022-10-30T06:07:39;25.75;;;17.45;;
9852;SDS011;4965;43.238;27.864;2022-10-30T06:10:06;21.80;;;16.73;;
9852;SDS011;4965;43.238;27.864;2022-10-30T06:12:36;24.60;;;17.17;;
9852;SDS011;4965;43.238;27.864;2022-10-30T06:15:03;19.58;;;16.35;;
9852;SDS011;4965;43.238;27.864;2022-10-30T06:17:31;27.08;;;18.88;;
9852;SDS011;4965;43.238;27.864;2022-10-30T06:19:58;25.40;;;18.95;;
9852;SDS011;4965;43.238;27.864;2022-10-30T06:22:26;26.67;;;19.23;;
9852;SDS011;4965;43.238;27.864;2022-10-30T06:24:53;25.02;;;18.88;;
9852;SDS011;4965;43.238;27.864;2022-10-30T06:27:20;30.58;;;19.25;;
9852;SDS011;4965;43.238;27.864;2022-10-30T06:29:47;28.42;;;19.73;;
9852;SDS011;4965;43.238;27.864;2022-10-30T06:32:15;25.08;;;20.02;;
9852;SDS011;4965;43.238;27.864;2022-10-30T06:34:42;27.30;;;21.65;;
9852;SDS011;4965;43.238;27.864;2022-10-30T06:37:09;27.40;;;20.10;;
9852;SDS011;4965;43.238;27.864;2022-10-30T06:39:37;27.95;;;21.83;;
9852;SDS011;4965;43.238;27.864;2022-10-30T06:42:04;27.15;;;21.27;;
9852;SDS011;4965;43.238;27.864;2022-10-30T06:44:31;24.40;;;20.95;;
9852;SDS011;4965;43.238;27.864;2022-10-30T06:46:58;23.55;;;20.35;;
9852;SDS011;4965;43.238;27.864;2022-10-30T06:49:25;26.17;;;21.20;;
9852;SDS011;4965;43.238;27.864;2022-10-30T06:51:52;28.55;;;23.05;;
9852;SDS011;4965;43.238;27.864;2022-10-30T06:54:19;29.80;;;24.08;;
9852;SDS011;4965;43.238;27.864;2022-10-30T06:56:49;25.17;;;22.50;;
9852;SDS011;4965;43.238;27.864;2022-10-30T06:59:16;28.55;;;23.98;;
9852;SDS011;4965;43.238;27.864;2022-10-30T07:01:43;24.77;;;22.27;;
9852;SDS011;4965;43.238;27.864;2022-10-30T07:04:11;26.25;;;22.35;;
9852;SDS011;4965;43.238;27.864;2022-10-30T07:06:38;18.70;;;16.73;;
9852;SDS011;4965;43.238;27.864;2022-10-30T07:09:05;21.75;;;19.45;;
9852;SDS011;4965;43.238;27.864;2022-10-30T07:11:33;23.75;;;18.98;;
9852;SDS011;4965;43.238;27.864;2022-10-30T07:14:01;22.27;;;19.95;;
9852;SDS011;4965;43.238;27.864;2022-10-30T07:16:28;23.42;;;18.90;;
9852;SDS011;4965;43.238;27.864;2022-10-30T07:18:55;26.20;;;19.42;;
9852;SDS011;4965;43.238;27.864;2022-10-30T07:21:22;26.20;;;18.65;;
9852;SDS011;4965;43.238;27.864;2022-10-30T07:23:51;26.10;;;18.23;;
9852;SDS011;4965;43.238;27.864;2022-10-30T07:26:19;26.02;;;19.17;;
9852;SDS011;4965;43.238;27.864;2022-10-30T07:28:46;25.90;;;21.10;;
9852;SDS011;4965;43.238;27.864;2022-10-30T07:31:15;28.25;;;22.75;;
9852;SDS011;4965;43.238;27.864;2022-10-30T07:33:42;26.00;;;21.70;;
9852;SDS011;4965;43.238;27.864;2022-10-30T07:36:09;27.80;;;21.92;;
9852;SDS011;4965;43.238;27.864;2022-10-30T07:38:36;33.58;;;26.30;;
9852;SDS011;4965;43.238;27.864;2022-10-30T07:41:07;31.50;;;27.05;;
9852;SDS011;4965;43.238;27.864;2022-10-30T07:43:34;31.95;;;28.38;;
9852;SDS011;4965;43.238;27.864;2022-10-30T07:46:01;33.22;;;25.10;;
9852;SDS011;4965;43.238;27.864;2022-10-30T07:48:30;35.63;;;27.85;;
9852;SDS011;4965;43.238;27.864;2022-10-30T07:50:57;35.83;;;27.75;;
9852;SDS011;4965;43.238;27.864;2022-10-30T07:53:24;40.35;;;28.48;;
9852;SDS011;4965;43.238;27.864;2022-10-30T07:55:51;34.15;;;27.95;;
9852;SDS011;4965;43.238;27.864;2022-10-30T07:58:18;32.90;;;25.45;;
9852;SDS011;4965;43.238;27.864;2022-10-30T08:00:45;26.00;;;22.13;;
9852;SDS011;4965;43.238;27.864;2022-10-30T08:03:12;29.02;;;21.98;;
9852;SDS011;4965;43.238;27.864;2022-10-30T08:05:42;28.25;;;21.45;;
9852;SDS011;4965;43.238;27.864;2022-10-30T08:08:09;28.55;;;20.88;;
9852;SDS011;4965;43.238;27.864;2022-10-30T08:10:36;25.70;;;20.48;;
9852;SDS011;4965;43.238;27.864;2022-10-30T08:13:04;27.75;;;18.95;;
9852;SDS011;4965;43.238;27.864;2022-10-30T08:15:31;23.23;;;18.85;;
9852;SDS011;4965;43.238;27.864;2022-10-30T08:17:58;22.38;;;18.15;;
9852;SDS011;4965;43.238;27.864;2022-10-30T08:20:25;32.45;;;17.80;;
9852;SDS011;4965;43.238;27.864;2022-10-30T08:22:54;27.35;;;17.13;;
9852;SDS011;4965;43.238;27.864;2022-10-30T08:25:23;32.53;;;16.80;;
9852;SDS011;4965;43.238;27.864;2022-10-30T08:27:53;19.08;;;16.48;;
9852;SDS011;4965;43.238;27.864;2022-10-30T08:30:23;22.02;;;16.92;;
9852;SDS011;4965;43.238;27.864;2022-10-30T08:32:55;21.27;;;16.35;;
9852;SDS011;4965;43.238;27.864;2022-10-30T08:35:23;22.95;;;17.58;;
9852;SDS011;4965;43.238;27.864;2022-10-30T08:37:54;21.23;;;15.57;;
9852;SDS011;4965;43.238;27.864;2022-10-30T08:40:25;25.65;;;16.40;;
9852;SDS011;4965;43.238;27.864;2022-10-30T08:45:38;22.27;;;16.08;;
9852;SDS011;4965;43.238;27.864;2022-10-30T08:48:06;19.23;;;14.45;;
9852;SDS011;4965;43.238;27.864;2022-10-30T08:50:35;21.92;;;14.93;;
9852;SDS011;4965;43.238;27.864;2022-10-30T08:53:05;25.30;;;14.77;;
9852;SDS011;4965;43.238;27.864;2022-10-30T08:55:34;29.73;;;13.30;;
9852;SDS011;4965;43.238;27.864;2022-10-30T08:58:01;15.90;;;13.40;;
9852;SDS011;4965;43.238;27.864;2022-10-30T09:00:29;16.58;;;14.05;;
9852;SDS011;4965;43.238;27.864;2022-10-30T09:02:58;19.63;;;14.80;;
9852;SDS011;4965;43.238;27.864;2022-10-30T09:05:25;22.02;;;12.70;;
9852;SDS011;4965;43.238;27.864;2022-10-30T09:07:54;22.50;;;13.63;;
9852;SDS011;4965;43.238;27.864;2022-10-30T09:10:26;20.88;;;17.40;;
9852;SDS011;4965;43.238;27.864;2022-10-30T09:12:53;20.92;;;13.70;;
9852;SDS011;4965;43.238;27.864;2022-10-30T09:15:21;17.08;;;12.77;;
9852;SDS011;4965;43.238;27.864;2022-10-30T09:17:53;18.35;;;13.18;;
9852;SDS011;4965;43.238;27.864;2022-10-30T09:20:22;22.88;;;12.70;;
9852;SDS011;4965;43.238;27.864;2022-10-30T09:22:49;16.02;;;11.07;;
9852;SDS011;4965;43.238;27.864;2022-10-30T09:25:17;18.23;;;11.75;;
9852;SDS011;4965;43.238;27.864;2022-10-30T09:27:45;12.77;;;9.00;;
9852;SDS011;4965;43.238;27.864;2022-10-30T09:30:13;11.73;;;9.10;;
9852;SDS011;4965;43.238;27.864;2022-10-30T09:32:40;15.32;;;7.07;;
9852;SDS011;4965;43.238;27.864;2022-10-30T09:35:07;16.88;;;9.00;;
9852;SDS011;4965;43.238;27.864;2022-10-30T09:37:35;12.80;;;8.55;;
9852;SDS011;4965;43.238;27.864;2022-10-30T09:40:02;10.18;;;8.63;;
9852;SDS011;4965;43.238;27.864;2022-10-30T09:48:30;15.93;;;8.02;;
9852;SDS011;4965;43.238;27.864;2022-10-30T09:51:13;11.43;;;8.15;;
9852;SDS011;4965;43.238;27.864;2022-10-30T09:53:54;12.65;;;9.18;;
9852;SDS011;4965;43.238;27.864;2022-10-30T09:56:31;12.75;;;9.30;;
9852;SDS011;4965;43.238;27.864;2022-10-30T09:59:05;16.65;;;8.40;;
9852;SDS011;4965;43.238;27.864;2022-10-30T10:01:38;12.35;;;9.45;;
9852;SDS011;4965;43.238;27.864;2022-10-30T10:04:17;16.73;;;9.27;;
9852;SDS011;4965;43.238;27.864;2022-10-30T10:06:50;13.18;;;9.48;;
9852;SDS011;4965;43.238;27.864;2022-10-30T10:09:21;13.00;;;8.45;;
9852;SDS011;4965;43.238;27.864;2022-10-30T10:11:52;17.27;;;9.00;;
9852;SDS011;4965;43.238;27.864;2022-10-30T10:14:25;14.40;;;9.32;;
9852;SDS011;4965;43.238;27.864;2022-10-30T10:16:55;14.23;;;8.77;;
9852;SDS011;4965;43.238;27.864;2022-10-30T10:19:27;43.70;;;31.30;;
9852;SDS011;4965;43.238;27.864;2022-10-30T10:21:58;38.55;;;24.25;;
9852;SDS011;4965;43.238;27.864;2022-10-30T10:24:27;21.95;;;9.65;;
9852;SDS011;4965;43.238;27.864;2022-10-30T10:33:24;30.55;;;14.23;;
9852;SDS011;4965;43.238;27.864;2022-10-30T10:36:10;16.48;;;8.40;;
9852;SDS011;4965;43.238;27.864;2022-10-30T10:38:51;16.25;;;8.07;;
9852;SDS011;4965;43.238;27.864;2022-10-30T10:41:33;15.40;;;7.22;;
9852;SDS011;4965;43.238;27.864;2022-10-30T10:44:20;43.58;;;12.43;;
9852;SDS011;4965;43.238;27.864;2022-10-30T10:47:00;11.57;;;7.10;;
9852;SDS011;4965;43.238;27.864;2022-10-30T10:49:44;48.42;;;12.48;;
9852;SDS011;4965;43.238;27.864;2022-10-30T10:52:23;19.23;;;7.43;;
9852;SDS011;4965;43.238;27.864;2022-10-30T10:54:58;46.67;;;12.95;;
9852;SDS011;4965;43.238;27.864;2022-10-30T10:57:31;11.60;;;6.28;;
9852;SDS011;4965;43.238;27.864;2022-10-30T11:00:06;18.95;;;7.57;;
9852;SDS011;4965;43.238;27.864;2022-10-30T11:02:39;11.18;;;7.30;;
9852;SDS011;4965;43.238;27.864;2022-10-30T11:05:15;11.95;;;6.10;;
9852;SDS011;4965;43.238;27.864;2022-10-30T11:07:47;11.20;;;6.13;;
9852;SDS011;4965;43.238;27.864;2022-10-30T11:10:16;16.15;;;6.88;;
9852;SDS011;4965;43.238;27.864;2022-10-30T11:12:44;17.75;;;6.55;;
9852;SDS011;4965;43.238;27.864;2022-10-30T11:15:25;21.73;;;8.27;;
9852;SDS011;4965;43.238;27.864;2022-10-30T11:18:00;17.63;;;7.03;;
9852;SDS011;4965;43.238;27.864;2022-10-30T11:20:35;9.60;;;6.53;;
9852;SDS011;4965;43.238;27.864;2022-10-30T11:25:57;11.30;;;6.15;;
9852;SDS011;4965;43.238;27.864;2022-10-30T11:28:34;10.25;;;6.30;;
9852;SDS011;4965;43.238;27.864;2022-10-30T11:31:16;10.57;;;6.13;;
9852;SDS011;4965;43.238;27.864;2022-10-30T11:33:47;14.90;;;7.05;;
9852;SDS011;4965;43.238;27.864;2022-10-30T11:36:17;12.18;;;6.50;;
9852;SDS011;4965;43.238;27.864;2022-10-30T11:38:46;13.30;;;9.48;;
9852;SDS011;4965;43.238;27.864;2022-10-30T11:41:14;16.92;;;6.75;;
9852;SDS011;4965;43.238;27.864;2022-10-30T11:43:42;18.73;;;7.45;;
9852;SDS011;4965;43.238;27.864;2022-10-30T11:46:19;12.02;;;6.80;;
9852;SDS011;4965;43.238;27.864;2022-10-30T11:48:48;9.38;;;5.80;;
9852;SDS011;4965;43.238;27.864;2022-10-30T11:51:29;9.68;;;6.47;;
9852;SDS011;4965;43.238;27.864;2022-10-30T11:53:59;10.05;;;7.25;;
9852;SDS011;4965;43.238;27.864;2022-10-30T11:56:27;19.63;;;7.85;;
9852;SDS011;4965;43.238;27.864;2022-10-30T11:58:57;10.85;;;6.95;;
9852;SDS011;4965;43.238;27.864;2022-10-30T12:01:27;13.95;;;6.13;;
9852;SDS011;4965;43.238;27.864;2022-10-30T12:03:56;10.50;;;6.25;;
9852;SDS011;4965;43.238;27.864;2022-10-30T12:06:39;14.45;;;5.88;;
9852;SDS011;4965;43.238;27.864;2022-10-30T12:09:09;11.40;;;6.95;;
9852;SDS011;4965;43.238;27.864;2022-10-30T12:11:39;9.25;;;6.13;;
9852;SDS011;4965;43.238;27.864;2022-10-30T12:14:13;8.38;;;5.93;;
9852;SDS011;4965;43.238;27.864;2022-10-30T12:16:44;11.15;;;7.43;;
9852;SDS011;4965;43.238;27.864;2022-10-30T12:19:13;12.10;;;5.80;;
9852;SDS011;4965;43.238;27.864;2022-10-30T12:21:44;9.80;;;6.35;;
9852;SDS011;4965;43.238;27.864;2022-10-30T12:24:14;8.15;;;5.45;;
9852;SDS011;4965;43.238;27.864;2022-10-30T12:26:45;14.80;;;6.88;;
9852;SDS011;4965;43.238;27.864;2022-10-30T12:29:14;12.57;;;5.95;;
9852;SDS011;4965;43.238;27.864;2022-10-30T12:31:45;13.52;;;5.50;;
9852;SDS011;4965;43.238;27.864;2022-10-30T12:34:22;19.23;;;6.95;;
9852;SDS011;4965;43.238;27.864;2022-10-30T12:37:03;15.77;;;6.13;;
9852;SDS011;4965;43.238;27.864;2022-10-30T12:39:44;7.55;;;5.82;;
9852;SDS011;4965;43.238;27.864;2022-10-30T12:42:16;14.98;;;5.63;;
9852;SDS011;4965;43.238;27.864;2022-10-30T12:44:47;10.77;;;5.50;;
9852;SDS011;4965;43.238;27.864;2022-10-30T12:47:20;9.65;;;5.65;;
9852;SDS011;4965;43.238;27.864;2022-10-30T12:49:53;11.60;;;5.80;;
9852;SDS011;4965;43.238;27.864;2022-10-30T12:52:30;8.50;;;5.20;;
9852;SDS011;4965;43.238;27.864;2022-10-30T12:55:02;14.63;;;5.78;;
9852;SDS011;4965;43.238;27.864;2022-10-30T12:57:36;10.73;;;5.70;;
9852;SDS011;4965;43.238;27.864;2022-10-30T13:00:09;12.40;;;5.68;;
9852;SDS011;4965;43.238;27.864;2022-10-30T13:02:43;11.02;;;5.15;;
9852;SDS011;4965;43.238;27.864;2022-10-30T13:05:18;7.72;;;5.38;;
9852;SDS011;4965;43.238;27.864;2022-10-30T13:07:57;8.35;;;5.25;;
9852;SDS011;4965;43.238;27.864;2022-10-30T13:10:30;15.20;;;5.40;;
9852;SDS011;4965;43.238;27.864;2022-10-30T13:13:01;8.50;;;5.40;;
9852;SDS011;4965;43.238;27.864;2022-10-30T13:15:32;7.15;;;5.13;;
9852;SDS011;4965;43.238;27.864;2022-10-30T13:18:08;8.55;;;4.90;;
9852;SDS011;4965;43.238;27.864;2022-10-30T13:20:39;11.65;;;5.28;;
9852;SDS011;4965;43.238;27.864;2022-10-30T13:23:11;11.38;;;5.18;;
9852;SDS011;4965;43.238;27.864;2022-10-30T13:25:46;7.07;;;4.75;;
9852;SDS011;4965;43.238;27.864;2022-10-30T13:28:30;10.02;;;5.43;;
9852;SDS011;4965;43.238;27.864;2022-10-30T13:31:05;10.77;;;6.63;;
9852;SDS011;4965;43.238;27.864;2022-10-30T13:33:43;15.20;;;8.05;;
9852;SDS011;4965;43.238;27.864;2022-10-30T13:36:20;14.55;;;7.97;;
9852;SDS011;4965;43.238;27.864;2022-10-30T13:38:54;15.45;;;7.75;;
9852;SDS011;4965;43.238;27.864;2022-10-30T13:41:28;12.15;;;6.63;;
9852;SDS011;4965;43.238;27.864;2022-10-30T13:44:06;12.38;;;6.20;;
9852;SDS011;4965;43.238;27.864;2022-10-30T13:46:56;12.00;;;6.55;;
9852;SDS011;4965;43.238;27.864;2022-10-30T13:49:42;13.18;;;6.82;;
9852;SDS011;4965;43.238;27.864;2022-10-30T13:52:20;7.95;;;5.55;;
9852;SDS011;4965;43.238;27.864;2022-10-30T13:54:52;12.40;;;5.70;;
9852;SDS011;4965;43.238;27.864;2022-10-30T13:57:25;13.38;;;6.45;;
9852;SDS011;4965;43.238;27.864;2022-10-30T13:59:57;13.88;;;6.45;;
9852;SDS011;4965;43.238;27.864;2022-10-30T14:02:38;9.55;;;5.82;;
9852;SDS011;4965;43.238;27.864;2022-10-30T14:05:14;6.38;;;5.15;;
9852;SDS011;4965;43.238;27.864;2022-10-30T14:07:55;8.93;;;5.88;;
9852;SDS011;4965;43.238;27.864;2022-10-30T14:13:14;10.48;;;5.15;;
9852;SDS011;4965;43.238;27.864;2022-10-30T14:15:46;11.15;;;5.55;;
9852;SDS011;4965;43.238;27.864;2022-10-30T14:21:29;9.30;;;6.13;;
9852;SDS011;4965;43.238;27.864;2022-10-30T14:24:02;8.23;;;5.43;;
9852;SDS011;4965;43.238;27.864;2022-10-30T14:26:35;6.93;;;5.78;;
9852;SDS011;4965;43.238;27.864;2022-10-30T14:35:30;14.82;;;5.97;;
9852;SDS011;4965;43.238;27.864;2022-10-30T14:43:54;8.38;;;5.70;;
9852;SDS011;4965;43.238;27.864;2022-10-30T14:46:33;11.05;;;5.95;;
9852;SDS011;4965;43.238;27.864;2022-10-30T14:49:14;8.13;;;5.68;;
9852;SDS011;4965;43.238;27.864;2022-10-30T14:52:03;16.17;;;6.15;;
9852;SDS011;4965;43.238;27.864;2022-10-30T14:54:40;12.25;;;5.82;;
9852;SDS011;4965;43.238;27.864;2022-10-30T14:57:18;12.38;;;5.07;;
9852;SDS011;4965;43.238;27.864;2022-10-30T14:59:48;9.90;;;6.03;;
9852;SDS011;4965;43.238;27.864;2022-10-30T15:02:56;9.32;;;5.03;;
9852;SDS011;4965;43.238;27.864;2022-10-30T15:05:36;8.70;;;5.35;;
9852;SDS011;4965;43.238;27.864;2022-10-30T15:08:13;6.60;;;5.50;;
9852;SDS011;4965;43.238;27.864;2022-10-30T15:10:50;8.55;;;5.43;;
9852;SDS011;4965;43.238;27.864;2022-10-30T15:13:36;9.23;;;5.70;;
9852;SDS011;4965;43.238;27.864;2022-10-30T15:16:13;8.75;;;5.40;;
9852;SDS011;4965;43.238;27.864;2022-10-30T15:18:43;15.88;;;6.10;;
9852;SDS011;4965;43.238;27.864;2022-10-30T15:21:13;8.80;;;5.30;;
9852;SDS011;4965;43.238;27.864;2022-10-30T15:23:47;11.23;;;5.53;;
9852;SDS011;4965;43.238;27.864;2022-10-30T15:26:17;22.05;;;9.40;;
9852;SDS011;4965;43.238;27.864;2022-10-30T15:28:47;16.70;;;8.43;;
9852;SDS011;4965;43.238;27.864;2022-10-30T15:31:21;16.05;;;7.95;;
9852;SDS011;4965;43.238;27.864;2022-10-30T15:33:49;34.53;;;14.50;;
9852;SDS011;4965;43.238;27.864;2022-10-30T15:36:18;28.08;;;11.75;;
9852;SDS011;4965;43.238;27.864;2022-10-30T15:39:01;39.75;;;18.83;;